createdAt,value
2019-01-14T00:00:05.225Z,93.80
2019-01-14T00:02:33.427Z,93.60
2019-01-14T00:05:01.721Z,94.10
2019-01-14T00:07:29.950Z,93.60
2019-01-14T00:09:58.184Z,93.60
2019-01-14T00:12:26.460Z,93.30
2019-01-14T00:14:54.677Z,93.90
2019-01-14T00:17:22.948Z,93.90
2019-01-14T00:19:51.164Z,93.70
2019-01-14T00:22:19.644Z,94.10
2019-01-14T00:24:47.947Z,94.40
2019-01-14T00:27:16.163Z,94.80
2019-01-14T00:29:44.410Z,95.00
2019-01-14T00:32:12.646Z,95.20
2019-01-14T00:34:40.870Z,95.00
2019-01-14T00:37:09.116Z,94.60
2019-01-14T00:39:37.348Z,94.40
2019-01-14T00:42:05.596Z,94.10
2019-01-14T00:44:33.896Z,94.10
2019-01-14T00:47:02.134Z,93.90
2019-01-14T00:49:30.388Z,93.60
2019-01-14T00:51:58.608Z,93.50
2019-01-14T00:54:26.868Z,93.80
2019-01-14T00:56:55.089Z,93.40
2019-01-14T00:59:23.315Z,93.10
2019-01-14T01:01:51.564Z,92.40
2019-01-14T01:04:19.781Z,92.90
2019-01-14T01:06:48.106Z,92.60
2019-01-14T01:09:17.095Z,92.80
2019-01-14T01:11:45.388Z,92.50
2019-01-14T01:14:13.615Z,92.50
2019-01-14T01:16:41.840Z,92.30
2019-01-14T01:19:10.092Z,92.30
2019-01-14T01:21:38.324Z,92.10
2019-01-14T01:24:06.573Z,92.40
2019-01-14T01:26:34.812Z,92.50
2019-01-14T01:29:03.029Z,92.40
2019-01-14T01:31:31.335Z,92.40
2019-01-14T01:33:59.575Z,92.20
2019-01-14T01:36:31.868Z,92.30
2019-01-14T01:38:57.760Z,92.30
2019-01-14T01:41:25.977Z,91.80
2019-01-14T01:43:54.262Z,92.00
2019-01-14T01:46:22.485Z,92.00
2019-01-14T01:48:51.172Z,91.70
2019-01-14T01:51:19.412Z,91.60
2019-01-14T01:53:47.647Z,91.10
2019-01-14T01:56:15.920Z,91.30
2019-01-14T01:58:44.182Z,91.40
2019-01-14T02:01:12.399Z,91.30
2019-01-14T02:03:40.642Z,91.10
2019-01-14T02:06:08.864Z,91.50
2019-01-14T02:08:37.288Z,91.40
2019-01-14T02:11:05.509Z,91.30
2019-01-14T02:13:33.723Z,91.30
2019-01-14T02:16:01.976Z,91.40
2019-01-14T02:18:30.193Z,91.50
2019-01-14T02:20:58.460Z,91.30
2019-01-14T02:23:26.680Z,91.50
2019-01-14T02:25:54.923Z,91.10
2019-01-14T02:28:23.127Z,91.30
2019-01-14T02:30:51.318Z,91.10
2019-01-14T02:33:19.559Z,91.40
2019-01-14T02:35:47.936Z,91.10
2019-01-14T02:38:16.121Z,91.20
2019-01-14T02:40:44.330Z,91.20
2019-01-14T02:43:12.522Z,90.90
2019-01-14T02:45:40.718Z,91.00
2019-01-14T02:48:08.934Z,91.00
2019-01-14T02:50:37.122Z,91.00
2019-01-14T02:53:05.307Z,91.10
2019-01-14T02:55:33.539Z,90.80
2019-01-14T02:58:01.726Z,91.00
2019-01-14T03:00:29.919Z,90.60
2019-01-14T03:02:58.146Z,90.90
2019-01-14T03:05:26.335Z,91.00
2019-01-14T03:07:54.539Z,91.20
2019-01-14T03:10:22.756Z,91.20
2019-01-14T03:12:50.948Z,91.20
2019-01-14T03:15:19.195Z,91.20
2019-01-14T03:17:47.403Z,91.40
2019-01-14T03:20:16.643Z,91.60
2019-01-14T03:22:44.834Z,91.60
2019-01-14T03:25:13.890Z,91.90
2019-01-14T03:27:42.087Z,91.80
2019-01-14T03:30:12.920Z,92.00
2019-01-14T03:32:41.128Z,92.10
2019-01-14T03:35:09.319Z,92.20
2019-01-14T03:37:37.517Z,92.30
2019-01-14T03:40:08.930Z,92.40
2019-01-14T03:42:37.123Z,92.30
2019-01-14T03:45:05.799Z,92.50
2019-01-14T03:47:34.519Z,92.50
2019-01-14T03:50:02.787Z,92.60
2019-01-14T03:52:30.988Z,92.80
2019-01-14T03:54:59.207Z,92.50
2019-01-14T03:57:27.406Z,92.40
2019-01-14T03:59:55.604Z,92.50
2019-01-14T04:02:23.814Z,92.60
2019-01-14T04:04:52.010Z,92.50
2019-01-14T04:07:20.204Z,92.50
2019-01-14T04:09:48.440Z,92.40
2019-01-14T04:12:16.631Z,92.50
2019-01-14T04:14:44.824Z,92.80
2019-01-14T04:17:13.035Z,92.90
2019-01-14T04:19:41.231Z,92.80
2019-01-14T04:22:09.647Z,93.00
2019-01-14T04:24:37.864Z,93.10
2019-01-14T04:27:06.075Z,93.50
2019-01-14T04:29:34.272Z,93.10
2019-01-14T04:32:02.495Z,93.30
2019-01-14T04:34:30.688Z,92.90
2019-01-14T04:36:58.875Z,93.20
2019-01-14T04:39:27.092Z,92.90
2019-01-14T04:41:55.362Z,92.80
2019-01-14T04:44:23.562Z,92.90
2019-01-14T04:46:51.784Z,92.90
2019-01-14T04:49:19.972Z,92.80
2019-01-14T04:51:48.174Z,92.60
2019-01-14T04:54:16.399Z,92.90
2019-01-14T04:56:44.602Z,93.00
2019-01-14T04:59:12.826Z,92.90
2019-01-14T05:01:41.060Z,92.90
2019-01-14T05:04:09.263Z,92.90
2019-01-14T05:06:37.462Z,92.80
2019-01-14T05:09:07.522Z,93.00
2019-01-14T05:11:35.726Z,92.90
2019-01-14T05:14:04.089Z,92.90
2019-01-14T05:16:32.296Z,92.70
2019-01-14T05:19:00.475Z,92.90
2019-01-14T05:21:28.680Z,92.90
2019-01-14T05:23:56.878Z,92.70
2019-01-14T05:26:25.167Z,92.70
2019-01-14T05:28:53.374Z,92.90
2019-01-14T05:31:21.567Z,93.00
2019-01-14T05:33:49.781Z,92.60
2019-01-14T05:36:17.980Z,92.80
2019-01-14T05:38:46.206Z,92.70
2019-01-14T05:41:14.408Z,92.90
2019-01-14T05:43:42.607Z,93.20
2019-01-14T05:46:10.835Z,93.50
2019-01-14T05:48:40.752Z,93.80
2019-01-14T05:51:09.359Z,94.20
2019-01-14T05:53:37.554Z,94.30
2019-01-14T05:56:05.778Z,94.20
2019-01-14T05:58:34.007Z,94.50
2019-01-14T06:01:02.440Z,94.70
2019-01-14T06:03:30.772Z,95.00
2019-01-14T06:05:58.950Z,94.60
2019-01-14T06:08:27.161Z,94.80
2019-01-14T06:10:55.406Z,94.90
2019-01-14T06:13:23.598Z,95.00
2019-01-14T06:15:51.814Z,94.90
2019-01-14T06:18:20.018Z,95.00
2019-01-14T06:20:48.227Z,95.20
2019-01-14T06:23:16.498Z,95.00
2019-01-14T06:25:44.698Z,95.20
2019-01-14T06:28:12.995Z,95.20
2019-01-14T06:30:41.170Z,95.40
2019-01-14T06:33:09.367Z,95.40
2019-01-14T06:35:39.950Z,95.50
2019-01-14T06:38:08.734Z,95.60
2019-01-14T06:40:36.964Z,95.80
2019-01-14T06:43:05.183Z,95.60
2019-01-14T06:45:33.371Z,95.80
2019-01-14T06:48:01.590Z,96.00
2019-01-14T06:50:29.794Z,95.70
2019-01-14T06:52:58.026Z,96.00
2019-01-14T06:55:26.229Z,96.00
2019-01-14T06:57:54.438Z,96.10
2019-01-14T07:00:26.018Z,96.00
2019-01-14T07:02:54.300Z,96.00
2019-01-14T07:05:22.521Z,96.00
2019-01-14T07:07:50.723Z,96.00
2019-01-14T07:10:24.389Z,95.90
2019-01-14T07:12:52.611Z,96.10
2019-01-14T07:15:20.810Z,96.00
2019-01-14T07:17:49.030Z,96.20
2019-01-14T07:20:17.874Z,96.30
2019-01-14T07:22:46.140Z,96.30
2019-01-14T07:25:14.392Z,96.30
2019-01-14T07:27:42.586Z,96.40
2019-01-14T07:30:13.458Z,96.40
2019-01-14T07:32:41.650Z,96.80
2019-01-14T07:35:09.851Z,96.80
2019-01-14T07:37:38.050Z,96.80
2019-01-14T07:40:12.027Z,97.20
2019-01-14T07:42:40.230Z,97.00
2019-01-14T07:45:11.074Z,97.10
2019-01-14T07:47:39.279Z,97.00
2019-01-14T07:50:10.143Z,96.80
2019-01-14T07:52:38.351Z,96.80
2019-01-14T07:55:06.581Z,96.50
2019-01-14T07:57:34.777Z,96.20
2019-01-14T08:00:04.781Z,96.40
2019-01-14T08:02:33.003Z,96.20
2019-01-14T08:05:01.197Z,96.50
2019-01-14T08:07:30.134Z,95.80
2019-01-14T08:09:58.327Z,95.20
2019-01-14T08:12:26.519Z,95.30
2019-01-14T08:14:54.747Z,95.60
2019-01-14T08:17:22.930Z,95.80
2019-01-14T08:19:51.151Z,95.80
2019-01-14T08:22:19.342Z,95.90
2019-01-14T08:24:47.541Z,95.90
2019-01-14T08:27:16.115Z,95.70
2019-01-14T08:29:44.307Z,95.70
2019-01-14T08:32:12.527Z,96.10
2019-01-14T08:34:40.735Z,96.20
2019-01-14T08:37:08.963Z,96.10
2019-01-14T08:39:37.172Z,96.20
2019-01-14T08:42:05.745Z,96.50
2019-01-14T08:44:35.594Z,96.60
2019-01-14T08:47:03.865Z,96.40
2019-01-14T08:49:32.082Z,96.60
2019-01-14T08:52:00.279Z,96.70
2019-01-14T08:54:28.466Z,96.80
2019-01-14T08:56:56.678Z,96.80
2019-01-14T08:59:24.862Z,97.00
2019-01-14T09:01:53.084Z,97.10
2019-01-14T09:04:23.394Z,96.90
2019-01-14T09:06:51.203Z,97.00
2019-01-14T09:09:19.415Z,97.20
2019-01-14T09:11:47.611Z,97.40
2019-01-14T09:14:15.838Z,96.90
2019-01-14T09:16:44.036Z,97.00
2019-01-14T09:19:12.218Z,96.80
2019-01-14T09:21:40.430Z,97.10
2019-01-14T09:24:08.617Z,97.00
2019-01-14T09:26:36.833Z,96.80
2019-01-14T09:29:05.044Z,96.30
2019-01-14T09:31:33.522Z,95.90
2019-01-14T09:34:02.922Z,96.10
2019-01-14T09:36:31.114Z,96.30
2019-01-14T09:38:59.330Z,96.60
2019-01-14T09:41:27.530Z,96.10
2019-01-14T09:43:55.730Z,96.10
2019-01-14T09:46:23.953Z,96.20
2019-01-14T09:48:52.152Z,96.30
2019-01-14T09:51:20.375Z,96.50
2019-01-14T09:53:48.554Z,96.50
2019-01-14T09:56:16.750Z,96.80
2019-01-14T09:58:44.966Z,96.90
2019-01-14T10:01:13.158Z,97.00
2019-01-14T10:03:41.386Z,97.00
2019-01-14T10:06:09.586Z,97.00
2019-01-14T10:08:43.001Z,97.00
2019-01-14T10:11:07.743Z,97.20
2019-01-14T10:13:35.930Z,97.10
2019-01-14T10:16:04.134Z,96.90
2019-01-14T10:18:32.643Z,96.90
2019-01-14T10:21:00.834Z,96.20
2019-01-14T10:23:29.042Z,96.10
2019-01-14T10:25:57.238Z,95.70
2019-01-14T10:28:25.449Z,95.80
2019-01-14T10:30:53.639Z,95.60
2019-01-14T10:33:21.826Z,96.10
2019-01-14T10:35:50.036Z,95.80
2019-01-14T10:38:18.230Z,96.70
2019-01-14T10:40:46.469Z,96.30
2019-01-14T10:43:14.656Z,95.80
2019-01-14T10:45:42.847Z,95.50
2019-01-14T10:48:11.060Z,95.60
2019-01-14T10:50:39.247Z,96.10
2019-01-14T10:53:07.464Z,95.90
2019-01-14T10:55:35.659Z,95.90
2019-01-14T10:58:03.843Z,96.30
2019-01-14T11:00:32.046Z,96.40
2019-01-14T11:03:00.310Z,96.40
2019-01-14T11:05:28.797Z,96.50
2019-01-14T11:07:56.974Z,96.40
2019-01-14T11:10:25.166Z,96.80
2019-01-14T11:12:53.376Z,96.80
2019-01-14T11:15:21.930Z,96.40
2019-01-14T11:17:50.232Z,96.10
2019-01-14T11:20:29.769Z,95.90
2019-01-14T11:22:58.413Z,95.30
2019-01-14T11:25:26.667Z,95.40
2019-01-14T11:27:54.866Z,95.30
2019-01-14T11:30:25.769Z,94.80
2019-01-14T11:32:53.968Z,95.00
2019-01-14T11:35:22.187Z,95.20
2019-01-14T11:37:50.677Z,94.80
2019-01-14T11:40:24.430Z,94.50
2019-01-14T11:42:52.634Z,94.10
2019-01-14T11:45:20.843Z,93.70
2019-01-14T11:47:49.046Z,94.60
2019-01-14T11:50:17.611Z,94.10
2019-01-14T11:52:45.938Z,94.40
2019-01-14T11:55:14.150Z,94.30
2019-01-14T11:57:42.338Z,94.20
2019-01-14T12:00:13.892Z,94.40
2019-01-14T12:02:42.083Z,94.20
2019-01-14T12:05:10.550Z,94.20
2019-01-14T12:07:38.761Z,94.30
2019-01-14T12:10:09.099Z,94.60
2019-01-14T12:12:37.330Z,94.30
2019-01-14T12:15:08.777Z,94.30
2019-01-14T12:17:36.986Z,94.00
2019-01-14T12:20:08.455Z,93.90
2019-01-14T12:22:36.654Z,93.60
2019-01-14T12:25:07.035Z,93.20
2019-01-14T12:27:35.216Z,93.80
2019-01-14T12:30:18.369Z,93.30
2019-01-14T12:32:46.587Z,92.70
2019-01-14T12:35:14.786Z,93.10
2019-01-14T12:37:43.005Z,93.50
2019-01-14T12:40:12.334Z,93.60
2019-01-14T12:42:40.550Z,93.80
2019-01-14T12:45:15.022Z,93.80
2019-01-14T12:47:43.227Z,93.70
2019-01-14T12:50:13.998Z,93.80
2019-01-14T12:52:42.204Z,94.50
2019-01-14T12:55:12.952Z,93.30
2019-01-14T12:57:41.146Z,93.30
2019-01-14T13:00:23.362Z,94.30
2019-01-14T13:02:51.554Z,95.60
2019-01-14T13:05:20.984Z,96.20
2019-01-14T13:07:49.186Z,96.20
2019-01-14T13:10:17.378Z,96.10
2019-01-14T13:12:45.628Z,95.80
2019-01-14T13:15:22.587Z,96.00
2019-01-14T13:17:50.794Z,96.20
2019-01-14T13:20:20.478Z,96.50
2019-01-14T13:22:50.038Z,96.80
2019-01-14T13:25:18.251Z,96.10
2019-01-14T13:27:46.442Z,96.30
2019-01-14T13:30:20.566Z,96.10
2019-01-14T13:32:48.755Z,96.20
2019-01-14T13:35:16.975Z,96.00
2019-01-14T13:37:45.177Z,96.20
2019-01-14T13:40:13.506Z,96.20
2019-01-14T13:42:41.725Z,96.00
2019-01-14T13:45:16.272Z,96.00
2019-01-14T13:47:44.429Z,95.90
2019-01-14T13:50:18.812Z,96.30
2019-01-14T13:52:46.984Z,95.60
2019-01-14T13:55:15.576Z,95.60
2019-01-14T13:57:43.782Z,95.20
2019-01-14T14:00:21.050Z,95.40
2019-01-14T14:02:49.271Z,95.50
2019-01-14T14:05:17.462Z,95.00
2019-01-14T14:07:45.650Z,94.70
2019-01-14T14:10:25.190Z,95.20
2019-01-14T14:12:53.377Z,95.20
2019-01-14T14:15:22.291Z,95.10
2019-01-14T14:17:50.618Z,95.40
2019-01-14T14:20:19.250Z,95.90
2019-01-14T14:22:47.703Z,96.10
2019-01-14T14:25:15.910Z,96.50
2019-01-14T14:27:44.107Z,96.80
2019-01-14T14:30:27.346Z,96.70
2019-01-14T14:32:55.535Z,97.00
2019-01-14T14:35:23.730Z,97.10
2019-01-14T14:37:51.930Z,97.30
2019-01-14T14:40:20.135Z,97.00
2019-01-14T14:42:48.330Z,97.20
2019-01-14T14:45:16.569Z,96.30
2019-01-14T14:47:44.751Z,95.90
2019-01-14T14:50:15.286Z,96.00
2019-01-14T14:52:43.572Z,95.70
2019-01-14T14:55:11.766Z,94.90
2019-01-14T14:57:39.966Z,94.30
2019-01-14T15:00:13.775Z,93.30
2019-01-14T15:02:41.964Z,91.90
2019-01-14T15:05:10.963Z,91.20
2019-01-14T15:07:39.218Z,91.30
2019-01-14T15:10:10.451Z,92.20
2019-01-14T15:12:38.671Z,93.00
2019-01-14T15:15:09.870Z,93.00
2019-01-14T15:17:38.057Z,93.60
2019-01-14T15:20:09.788Z,93.50
2019-01-14T15:22:37.962Z,93.70
2019-01-14T15:25:06.155Z,94.00
2019-01-14T15:27:34.386Z,94.20
2019-01-14T15:30:02.845Z,94.20
2019-01-14T15:32:31.050Z,94.40
2019-01-14T15:34:59.314Z,94.40
2019-01-14T15:37:27.537Z,93.90
2019-01-14T15:40:02.933Z,94.30
2019-01-14T15:42:25.651Z,94.20
2019-01-14T15:44:53.854Z,94.30
2019-01-14T15:47:22.049Z,94.50
2019-01-14T15:49:50.270Z,94.40
2019-01-14T15:52:18.482Z,94.80
2019-01-14T15:54:46.680Z,95.90
2019-01-14T15:57:14.887Z,96.20
2019-01-14T15:59:43.091Z,96.80
2019-01-14T16:02:11.274Z,96.80
2019-01-14T16:04:39.502Z,96.80
2019-01-14T16:07:08.382Z,96.80
2019-01-14T16:09:36.645Z,96.70
2019-01-14T16:12:05.212Z,96.70
2019-01-14T16:14:33.415Z,96.60
2019-01-14T16:17:01.643Z,96.10
2019-01-14T16:19:29.870Z,96.10
2019-01-14T16:21:58.066Z,96.20
2019-01-14T16:24:26.283Z,96.50
2019-01-14T16:26:54.479Z,96.40
2019-01-14T16:29:23.139Z,96.60
2019-01-14T16:31:51.371Z,96.70
2019-01-14T16:34:19.571Z,96.70
2019-01-14T16:36:47.767Z,96.60
2019-01-14T16:39:15.984Z,96.40
2019-01-14T16:41:44.178Z,96.10
2019-01-14T16:44:12.367Z,96.00
2019-01-14T16:46:40.586Z,95.90
2019-01-14T16:49:08.780Z,95.70
2019-01-14T16:51:36.970Z,96.00
2019-01-14T16:54:05.202Z,95.30
2019-01-14T16:56:33.393Z,94.90
2019-01-14T16:59:01.594Z,95.30
2019-01-14T17:01:30.275Z,94.70
2019-01-14T17:03:58.466Z,94.70
2019-01-14T17:06:26.688Z,94.40
2019-01-14T17:08:54.943Z,94.20
2019-01-14T17:11:23.106Z,94.30
2019-01-14T17:13:51.306Z,94.40
2019-01-14T17:16:19.533Z,94.30
2019-01-14T17:18:47.942Z,94.60
2019-01-14T17:21:16.920Z,94.60
2019-01-14T17:23:45.147Z,94.30
2019-01-14T17:26:13.348Z,94.30
2019-01-14T17:28:41.539Z,94.40
2019-01-14T17:31:09.747Z,94.10
2019-01-14T17:33:37.938Z,94.00
2019-01-14T17:36:07.763Z,93.40
2019-01-14T17:38:36.007Z,93.50
2019-01-14T17:41:04.203Z,93.40
2019-01-14T17:43:32.395Z,92.80
2019-01-14T17:46:00.606Z,92.60
2019-01-14T17:48:28.794Z,92.30
2019-01-14T17:50:56.992Z,92.50
2019-01-14T17:53:25.216Z,92.10
2019-01-14T17:55:53.494Z,92.00
2019-01-14T17:58:21.758Z,92.00
2019-01-14T18:00:50.016Z,92.20
2019-01-14T18:03:18.694Z,92.40
2019-01-14T18:05:46.911Z,92.10
2019-01-14T18:08:15.147Z,92.10
2019-01-14T18:10:43.352Z,92.30
2019-01-14T18:13:11.551Z,92.00
2019-01-14T18:15:39.765Z,91.80
2019-01-14T18:18:08.034Z,91.80
2019-01-14T18:20:36.239Z,91.70
2019-01-14T18:23:04.499Z,91.60
2019-01-14T18:25:32.690Z,90.90
2019-01-14T18:28:00.883Z,90.30
2019-01-14T18:30:29.111Z,90.00
2019-01-14T18:32:57.295Z,88.30
2019-01-14T18:35:25.486Z,88.30
2019-01-14T18:37:53.837Z,88.20
2019-01-14T18:40:22.050Z,88.40
2019-01-14T18:42:50.247Z,87.60
2019-01-14T18:45:18.690Z,87.00
2019-01-14T18:47:46.897Z,86.90
2019-01-14T18:50:20.129Z,86.80
2019-01-14T18:52:48.335Z,87.50
2019-01-14T18:55:16.529Z,87.70
2019-01-14T18:57:44.718Z,86.90
2019-01-14T19:00:18.190Z,88.30
2019-01-14T19:02:46.448Z,87.00
2019-01-14T19:05:14.634Z,87.90
2019-01-14T19:07:42.878Z,88.30
2019-01-14T19:10:14.085Z,88.30
2019-01-14T19:12:42.315Z,88.80
2019-01-14T19:15:12.969Z,89.40
2019-01-14T19:17:41.163Z,89.60
2019-01-14T19:20:15.754Z,90.40
2019-01-14T19:22:43.975Z,90.60
2019-01-14T19:25:13.351Z,91.30
2019-01-14T19:27:45.403Z,91.10
2019-01-14T19:30:16.418Z,91.30
2019-01-14T19:32:44.683Z,91.50
2019-01-14T19:35:12.856Z,91.60
2019-01-14T19:37:41.074Z,91.60
2019-01-14T19:40:14.287Z,91.40
2019-01-14T19:42:42.475Z,91.60
2019-01-14T19:45:12.540Z,91.70
2019-01-14T19:47:40.731Z,91.90
2019-01-14T19:50:12.260Z,92.10
2019-01-14T19:52:40.546Z,92.20
2019-01-14T19:55:08.744Z,92.10
2019-01-14T19:57:36.927Z,92.60
2019-01-14T20:00:11.289Z,92.70
2019-01-14T20:02:39.459Z,92.80
2019-01-14T20:05:07.820Z,92.80
2019-01-14T20:07:36.095Z,92.90
2019-01-14T20:10:07.311Z,92.80
2019-01-14T20:12:35.487Z,93.00
2019-01-14T20:15:06.721Z,93.50
2019-01-14T20:17:34.918Z,94.60
2019-01-14T20:20:04.735Z,96.10
2019-01-14T20:22:32.978Z,95.60
2019-01-14T20:25:02.909Z,95.60
2019-01-14T20:27:33.223Z,95.50
2019-01-14T20:30:03.222Z,95.40
2019-01-14T20:32:34.420Z,95.20
2019-01-14T20:35:02.626Z,95.00
2019-01-14T20:37:30.851Z,94.80
2019-01-14T20:40:01.898Z,94.10
2019-01-14T20:42:30.090Z,93.60
2019-01-14T20:44:58.311Z,92.70
2019-01-14T20:47:26.515Z,92.40
2019-01-14T20:49:54.735Z,91.80
2019-01-14T20:52:22.962Z,92.10
2019-01-14T20:54:51.171Z,91.80
2019-01-14T20:57:19.375Z,91.60
2019-01-14T20:59:47.587Z,91.80
2019-01-14T21:02:15.802Z,91.40
2019-01-14T21:04:44.035Z,91.60
2019-01-14T21:07:16.220Z,91.10
2019-01-14T21:09:44.419Z,91.20
2019-01-14T21:12:12.633Z,90.80
2019-01-14T21:14:43.003Z,91.10
2019-01-14T21:17:12.502Z,90.60
2019-01-14T21:19:40.663Z,90.50
2019-01-14T21:22:08.887Z,90.00
2019-01-14T21:24:37.099Z,90.00
2019-01-14T21:27:05.303Z,89.40
2019-01-14T21:29:35.162Z,89.30
2019-01-14T21:32:03.370Z,87.40
2019-01-14T21:34:31.571Z,87.40
2019-01-14T21:36:59.805Z,87.50
2019-01-14T21:39:27.971Z,88.90
2019-01-14T21:41:57.684Z,87.30
2019-01-14T21:44:25.917Z,87.90
2019-01-14T21:47:01.883Z,87.40
2019-01-14T21:49:33.362Z,87.30
2019-01-14T21:52:01.614Z,87.30
2019-01-14T21:54:29.783Z,86.40
2019-01-14T21:56:57.993Z,86.50
2019-01-14T21:59:26.223Z,85.80
2019-01-14T22:01:56.243Z,86.90
2019-01-14T22:04:24.394Z,85.40
2019-01-14T22:06:52.622Z,86.70
2019-01-14T22:09:20.814Z,85.00
2019-01-14T22:11:49.019Z,86.50
2019-01-14T22:14:17.246Z,85.50
2019-01-14T22:16:45.456Z,85.40
2019-01-14T22:19:13.641Z,85.30
2019-01-14T22:21:41.887Z,85.20
2019-01-14T22:24:10.093Z,85.10
2019-01-14T22:26:38.272Z,85.10
2019-01-14T22:29:06.514Z,85.90
2019-01-14T22:31:37.406Z,85.40
2019-01-14T22:34:07.242Z,85.40
2019-01-14T22:36:35.462Z,85.90
2019-01-14T22:39:08.587Z,85.90
2019-01-14T22:41:45.694Z,86.30
2019-01-14T22:44:09.846Z,86.90
2019-01-14T22:46:38.033Z,86.60
2019-01-14T22:49:06.263Z,86.60
2019-01-14T22:51:34.459Z,86.80
2019-01-14T22:54:02.656Z,86.60
2019-01-14T22:56:30.947Z,85.20
2019-01-14T22:58:59.142Z,84.80
2019-01-14T23:01:29.083Z,85.60
2019-01-14T23:03:57.317Z,85.90
2019-01-14T23:06:25.518Z,86.40
2019-01-14T23:08:53.722Z,86.40
2019-01-14T23:11:23.572Z,86.00
2019-01-14T23:13:51.783Z,86.30
2019-01-14T23:16:20.001Z,86.30
2019-01-14T23:18:48.202Z,85.80
2019-01-14T23:21:16.402Z,86.30
2019-01-14T23:23:44.614Z,87.20
2019-01-14T23:26:12.819Z,86.70
2019-01-14T23:28:41.018Z,86.90
2019-01-14T23:31:09.245Z,86.80
2019-01-14T23:33:37.455Z,86.60
2019-01-14T23:36:05.623Z,87.10
2019-01-14T23:38:33.851Z,87.60
2019-01-14T23:41:02.043Z,88.60
2019-01-14T23:43:30.242Z,89.00
2019-01-14T23:45:58.478Z,89.30
2019-01-14T23:48:26.687Z,89.90
2019-01-14T23:50:54.898Z,89.90
2019-01-14T23:53:24.028Z,90.10
2019-01-14T23:55:52.213Z,90.20
2019-01-14T23:58:20.488Z,90.70
